x

New London Ledge Ct - Ledge Light Weather Station (ldlc3) Weather Station

6:45 - Tue 25th Nov 2014 All times are EST. -5 hours from GMT.

  • Wind
    16mph, 20mph gusts
  • Luft Temp 52°f
  • Sea Pressure 1015.8mb
  • New London Ledge Ct - Ledge Light Weather Station
  • New London Ledge Ct - Ledge Light Weather Station

More Historic Weather Station data

Upgrade to MSW Pro to gain access to the past 30 days of data for over 8000 Wavebouys and Weather Stations around the globe.

Join Pro

Comparision Forecast

View Surf forecast
   
Di 11/25 6:45 16 20 mph 1015.8mb 52f
6:30 15 17 mph 1015.8mb 52f
6:15 15 17 mph 1015.7mb 52f
6:00 14 18 mph 1015.6mb 52f
5:45 15 17 mph 1015.5mb 52f
5:30 16 18 mph 1015.7mb 53f
5:15 17 20 mph 1015.4mb 53f
5:00 18 20 mph 1014.9mb 53f
4:45 20 22 mph 1014.5mb 53f
4:30 21 23 mph 1014.3mb 53f
4:15 21 24 mph 1014.4mb 53f
4:00 20 22 mph 1014mb 53f
3:45 18 20 mph 1013.7mb 53f
3:30 17 20 mph 1013.4mb 53f
3:15 18 21 mph 1013.3mb 53f
3:00 18 22 mph 1013.3mb 54f
2:45 20 22 mph 1013.1mb 54f
2:30 20 22 mph 1013.5mb 54f
2:15 20 22 mph 1013.1mb 54f
2:00 21 23 mph 1013mb 54f
1:45 20 21 mph 1013.1mb 55f
1:30 17 20 mph 1013.2mb 54f
1:15 16 18 mph 1013.3mb 54f
1:00 16 17 mph 1013mb 54f
12:45 16 18 mph 1013mb 54f
12:30 14 16 mph 1012.9mb 54f
12:15 16 18 mph 1013mb 54f
12:00 18 21 mph 1013.1mb 55f
11:45 20 21 mph 1013.3mb 55f
11:30 18 20 mph 1013mb 55f
11:15 18 21 mph 1012.9mb 56f
11:00 17 20 mph 1013.1mb 56f
10:45 17 21 mph 1013.1mb 56f
10:30 18 23 mph 1012.7mb 57f
10:15 17 18 mph 1012.5mb 55f
10:00 17 18 mph 1012.5mb 55f
9:45 15 17 mph 1012.5mb 55f
9:30 15 16 mph 1012.5mb 55f
9:15 14 16 mph 1012.2mb 55f
9:00 14 16 mph 1012.1mb 56f
8:45 16
mph
1011.8mb 57f
8:30 14 16 mph 1011.6mb 58f
8:15 14 17 mph 1011.4mb 57f
8:00 13 15 mph 1011.2mb 57f
7:45 15 17 mph 1011.2mb 57f
7:30 16 20 mph 1011.1mb 58f
7:15 16 18 mph 1010.9mb 58f
7:00 14 16 mph 1010.5mb 57f
6:45 14 17 mph 1010.5mb 57f
6:30 11 13 mph 1010.4mb 56f
6:15 13 15 mph 1010.1mb 57f
6:00 13 15 mph 1010mb 57f
5:45 14 16 mph 1009.8mb 57f
5:30 16 18 mph 1009.3mb 57f
5:15 14 17 mph 1009.3mb 57f
5:00 16 18 mph 1009.5mb 56f
4:45 15 20 mph 1009.2mb 56f
4:30 16 17 mph 1008.8mb 56f
4:15 11 14 mph 1008.5mb 56f
4:00 10 13 mph 1008.4mb 56f
3:45 14 16 mph 1008.5mb 56f
3:30 14 15 mph 1007.4mb 56f
3:15 10 15 mph 1007.6mb 56f
3:00 13 15 mph 1007.8mb 56f
2:45 11 15 mph 1007.8mb 56f
2:30 11 16 mph 1007.5mb 56f
2:15 14 16 mph 1007.4mb 55f
2:00 18 22 mph 1007.2mb 56f
1:45 16 20 mph 1007mb 55f
1:30 22 25 mph 1006.8mb 55f
1:15 28 31 mph 1006.8mb 56f
1:00 25 30 mph 1006.9mb 56f
12:45 16 22 mph 1007.1mb 55f
12:30 9 10 mph 1007.2mb 55f
12:15 9 10 mph 1006.7mb 56f
12:00 8 10 mph 1006.7mb 56f
Mo 11/24 6:45 18 22 mph 1005.2mb 57f
6:30 22 25 mph 1004.7mb 58f
6:15 25 30 mph 1004.3mb 58f
6:00 28 33 mph 1004mb 59f
5:45 25 29 mph 1004mb 58f
5:30 28 33 mph 1004mb 59f
5:15 15 21 mph 1004.3mb 58f
5:00 17 21 mph 1004mb 57f
4:45 18 21 mph 1003.5mb 58f
4:30 18 21 mph 1003.6mb 58f
4:15 23 25 mph 1002.9mb 58f
4:00 28 31 mph 1002.8mb 58f
3:45 24 28 mph 1003mb 58f
3:30 24 29 mph 1003mb 58f
3:15 23 25 mph 1003mb 57f
3:00 21 23 mph 1003.1mb 57f
2:45 22 24 mph 1003mb 58f
2:30 23 26 mph 1002.9mb 58f
2:15 24 28 mph 1002.9mb 59f
2:00 26 30 mph 1003.1mb 59f
1:45 25 29 mph 1003.4mb 59f
1:30 28 31 mph 1003.2mb 59f
1:15 25 33 mph 1003.2mb 59f
1:00 24 28 mph 1003.1mb 59f
12:45 26 29 mph 1003.1mb 60f
12:30 25 28 mph 1003.5mb 59f
12:15 25 28 mph 1003.7mb 59f
12:00 26 30 mph 1004.1mb 60f
11:45 25 31 mph 1004.4mb 60f
11:30 24 29 mph 1004.9mb 59f
11:15 24 28 mph 1005.3mb 59f
11:00 23 26 mph 1005.5mb 59f
10:45 24 28 mph 1005.7mb 59f
10:30 26 29 mph 1005.8mb 59f
10:15 28 34 mph 1006mb 60f
10:00 25 32 mph 1006.3mb 59f
9:45 25 30 mph 1006.4mb 59f
9:30 31 36 mph 1006.9mb 59f
9:25 32 41 mph 1006.8mb 59f
So 11/23 12:15 33 37 mph 1019.5mb 47f
12:00 31 37 mph 1019.6mb 47f
Sa 11/22 6:45 31 38 mph 1021.1mb 45f
6:30 31 34 mph 1021.3mb 45f
6:15 30 36 mph 1021.4mb 45f
6:00 32 38 mph 1021.6mb 44f
5:45 31 37 mph 1021.6mb 44f
5:30 32 38 mph 1021.6mb 43f
5:15 30 34 mph 1022mb 43f
5:00 30 36 mph 1022mb 43f
4:45 29 33 mph 1022.1mb 43f
4:30 33 38 mph 1022mb 43f
4:15 32 38 mph 1022.1mb 42f
4:00 32 38 mph 1022.1mb 42f
3:45 31 38 mph 1022.3mb 42f
3:30 30 34 mph 1022.8mb 42f
3:15 28 33 mph 1022.9mb 41f
3:00 29 33 mph 1023mb 41f
2:45 28 31 mph 1023.1mb 41f
2:30 26 30 mph 1023.3mb 41f
2:15 26 30 mph 1023.4mb 41f
2:00 25 30 mph 1023.7mb 41f
1:45 25 30 mph 1024.1mb 41f
1:30 26 32 mph 1024.3mb 41f
1:15 28 33 mph 1024.6mb 41f
1:00 28 31 mph 1024.7mb 40f
12:45 31 36 mph 1024.5mb 39f
12:30 32 37 mph 1024.7mb 39f
12:15 31 36 mph 1024.7mb 39f
12:00 26 32 mph 1025.5mb 39f
11:45 28 33 mph 1025.7mb 38f
11:30 26 32 mph 1026.1mb 38f
11:15 25 31 mph 1026.7mb 39f
11:00 26 30 mph 1027mb 38f
10:45 25 31 mph 1027.6mb 38f
10:30 26 31 mph 1027.9mb 38f
10:15 28 32 mph 1028.3mb 38f
10:00 29 34 mph 1028.4mb 39f
9:45 30 37 mph 1028.4mb 39f
9:30 25 31 mph 1028.6mb 38f
9:15 11 16 mph 1029.4mb 36f
9:00 11 15 mph 1029.6mb 35f
8:45 8 10 mph 1030mb 34f
8:30 8 11 mph 1030.1mb 33f
8:15 9 11 mph 1030.3mb 32f
8:00 9 11 mph 1030.4mb 31f
7:45 13 14 mph 1030.6mb 31f
7:30 13 15 mph 1030.5mb 30f
7:15 11 15 mph 1030.5mb 30f
7:00 10 14 mph 1030.4mb 30f
6:45 11 14 mph 1030.2mb 29f
6:30 10 13 mph 1030.1mb 29f
6:15 11 14 mph 1030.4mb 29f
6:00 10 14 mph 1030.3mb 29f
5:45 13 15 mph 1030.3mb 29f
5:30 13 16 mph 1030.2mb 29f
5:15 14 16 mph 1030.1mb 29f
5:00 15 17 mph 1030.1mb 29f
4:45 14 16 mph 1030.1mb 29f
4:30 13 16 mph 1030.1mb 29f
4:15 11 16 mph 1030.2mb 28f
4:00 13 16 mph 1030.1mb 28f
3:45 13 15 mph 1030.2mb 28f
3:30 13 15 mph 1030.3mb 28f